Time;durP1;ratioP1;P1;durP2;ratioP2;P2;SDS_P1;SDS_P2;PMS_P1;PMS_P2;Temp;Humidity;BMP_temperature;BMP_pressure;BME280_temperature;BME280_humidity;BME280_pressure;Samples;Min_cycle;Max_cycle;Signal;HPM_P1;HPM_P2
2023/07/25 00:02:04;;;;;;;;;;;27.30;63.60;;;;;;5045997;28;43034;-90
2023/07/25 00:04:29;;;;;;;;;;;27.30;63.40;;;;;;5045866;28;43815;-88
2023/07/25 00:06:57;;;;;;;;;;;27.20;62.90;;;;;;5044740;28;42944;-88
2023/07/25 00:09:23;;;;;;;;;;;27.30;63.90;;;;;;5046764;28;43352;-85
2023/07/25 00:11:48;;;;;;;;;;;27.20;62.80;;;;;;5046087;28;42922;-84
2023/07/25 00:14:14;;;;;;;;;;;27.30;63.60;;;;;;5045983;28;43179;-87
2023/07/25 00:16:39;;;;;;;;;;;27.30;63.50;;;;;;5046396;28;42911;-86
2023/07/25 00:19:05;;;;;;;;;;;27.20;63.40;;;;;;5044499;28;44617;-88
2023/07/25 00:21:30;;;;;;;;;;;27.20;63.60;;;;;;5046088;28;42987;-89
2023/07/25 00:23:56;;;;;;;;;;;27.20;63.50;;;;;;5046290;28;43153;-85
2023/07/25 00:26:21;;;;;;;;;;;27.30;63.70;;;;;;5045970;28;42946;-85
2023/07/25 00:28:47;;;;;;;;;;;27.30;63.70;;;;;;5045598;28;43107;-89
2023/07/25 00:31:13;;;;;;;;;;;27.30;63.60;;;;;;5046089;28;43038;-89
2023/07/25 00:33:38;;;;;;;;;;;27.30;63.80;;;;;;5045143;28;43410;-84
2023/07/25 00:36:04;;;;;;;;;;;27.30;63.70;;;;;;5046000;28;42973;-86
2023/07/25 00:38:29;;;;;;;;;;;27.30;63.90;;;;;;5045671;28;43034;-85
2023/07/25 00:40:55;;;;;;;;;;;27.30;63.80;;;;;;5045723;28;43001;-88
2023/07/25 00:43:20;;;;;;;;;;;27.30;63.70;;;;;;5045999;28;42887;-87
2023/07/25 00:45:46;;;;;;;;;;;27.30;63.60;;;;;;5045691;28;42939;-85
2023/07/25 00:48:12;;;;;;;;;;;27.30;63.60;;;;;;5045942;28;42979;-87
2023/07/25 00:50:37;;;;;;;;;;;27.30;63.50;;;;;;5045166;28;43187;-85
2023/07/25 00:53:04;;;;;;;;;;;27.30;63.40;;;;;;5044831;28;43414;-85
2023/07/25 00:55:30;;;;;;;;;;;27.30;63.40;;;;;;5042602;28;42898;-85
2023/07/25 00:57:55;;;;;;;;;;;27.30;63.60;;;;;;5044854;28;43733;-84
2023/07/25 01:00:21;;;;;;;;;;;27.30;64.20;;;;;;5044159;28;42904;-85
2023/07/25 01:02:46;;;;;;;;;;;27.30;63.70;;;;;;5045314;28;42956;-88
2023/07/25 01:05:12;;;;;;;;;;;27.20;63.70;;;;;;5044845;28;43050;-89
2023/07/25 01:07:40;;;;;;;;;;;27.20;63.80;;;;;;5045101;28;43372;-85
2023/07/25 01:10:06;;;;;;;;;;;27.20;63.80;;;;;;5045432;28;42809;-84
2023/07/25 01:12:31;;;;;;;;;;;27.20;64.10;;;;;;5045220;28;43371;-87
2023/07/25 01:14:57;;;;;;;;;;;27.20;64.50;;;;;;5045744;28;42907;-88
2023/07/25 01:17:24;;;;;;;;;;;27.20;64.00;;;;;;5044676;28;43641;-84
2023/07/25 01:19:50;;;;;;;;;;;27.20;64.10;;;;;;5045400;28;43108;-88
2023/07/25 01:22:16;;;;;;;;;;;27.20;64.20;;;;;;5044977;28;43357;-86
2023/07/25 01:24:43;;;;;;;;;;;27.20;64.30;;;;;;5044985;28;43041;-86
2023/07/25 01:27:08;;;;;;;;;;;27.20;64.30;;;;;;5044692;28;42972;-84
2023/07/25 01:29:34;;;;;;;;;;;27.30;64.50;;;;;;5044343;28;42916;-88
2023/07/25 01:31:59;;;;;;;;;;;27.30;64.50;;;;;;5044663;28;43183;-86
2023/07/25 01:34:25;;;;;;;;;;;27.30;64.70;;;;;;5044762;28;42985;-85
2023/07/25 01:36:50;;;;;;;;;;;27.30;64.70;;;;;;5044579;28;43569;-85
2023/07/25 01:39:16;;;;;;;;;;;27.20;64.70;;;;;;5045543;28;42916;-87
2023/07/25 01:41:42;;;;;;;;;;;27.30;64.80;;;;;;5044839;28;43005;-84
2023/07/25 01:44:08;;;;;;;;;;;27.20;64.70;;;;;;5043250;28;43078;-85
2023/07/25 01:46:33;;;;;;;;;;;27.30;64.80;;;;;;5044771;28;43421;-85
2023/07/25 01:48:59;;;;;;;;;;;27.30;64.80;;;;;;5044876;28;43224;-85
2023/07/25 01:51:25;;;;;;;;;;;27.30;64.90;;;;;;5042307;28;43054;-88
2023/07/25 01:53:51;;;;;;;;;;;26.20;63.90;;;;;;5022897;28;43179;-86
2023/07/25 01:56:18;;;;;;;;;;;27.30;64.90;;;;;;5036789;28;63758;-88
2023/07/25 01:58:44;;;;;;;;;;;27.20;64.70;;;;;;5043568;28;42951;-88
2023/07/25 02:01:09;;;;;;;;;;;27.30;65.00;;;;;;5044067;28;43449;-86
2023/07/25 02:03:35;;;;;;;;;;;27.20;64.80;;;;;;5043826;28;43030;-85
2023/07/25 02:06:00;;;;;;;;;;;27.20;64.80;;;;;;5044421;28;43999;-85
2023/07/25 02:08:26;;;;;;;;;;;27.30;64.80;;;;;;5042734;28;42998;-86
2023/07/25 02:10:51;;;;;;;;;;;27.30;64.70;;;;;;5043783;28;42831;-87
2023/07/25 02:13:17;;;;;;;;;;;27.30;64.70;;;;;;5043697;28;43070;-84
2023/07/25 02:15:42;;;;;;;;;;;27.30;64.80;;;;;;5043330;28;43374;-89
2023/07/25 02:18:08;;;;;;;;;;;27.30;64.70;;;;;;5043611;28;42994;-89
2023/07/25 02:20:33;;;;;;;;;;;27.20;64.60;;;;;;5043015;28;43200;-87
2023/07/25 02:22:59;;;;;;;;;;;27.20;64.60;;;;;;5043641;28;42910;-87
2023/07/25 02:25:25;;;;;;;;;;;27.20;64.60;;;;;;5044129;28;43014;-88
2023/07/25 02:27:51;;;;;;;;;;;27.30;64.60;;;;;;5043425;28;43101;-87
2023/07/25 02:30:16;;;;;;;;;;;27.20;64.90;;;;;;5042781;28;42966;-86
2023/07/25 02:32:42;;;;;;;;;;;27.20;64.50;;;;;;5042587;28;42983;-87
2023/07/25 02:35:07;;;;;;;;;;;27.20;64.40;;;;;;5039588;28;43544;-82
2023/07/25 02:37:33;;;;;;;;;;;27.30;64.40;;;;;;5029140;28;43122;-87
2023/07/25 02:39:58;;;;;;;;;;;27.20;64.40;;;;;;5042163;28;43438;-84
2023/07/25 02:42:23;;;;;;;;;;;27.20;64.30;;;;;;5044061;28;42978;-88
2023/07/25 02:44:49;;;;;;;;;;;27.20;64.40;;;;;;5043303;28;42998;-89
2023/07/25 02:47:14;;;;;;;;;;;27.20;64.60;;;;;;5035281;28;43113;-85
2023/07/25 02:49:40;;;;;;;;;;;27.30;64.60;;;;;;5034330;28;43438;-87
2023/07/25 02:52:06;;;;;;;;;;;27.30;64.50;;;;;;5043895;28;42947;-87
2023/07/25 02:54:31;;;;;;;;;;;27.30;64.40;;;;;;5043224;28;43154;-87
2023/07/25 02:56:57;;;;;;;;;;;27.30;64.50;;;;;;5043943;28;43075;-86
2023/07/25 02:59:22;;;;;;;;;;;27.30;64.40;;;;;;5033512;28;43207;-90
2023/07/25 03:01:48;;;;;;;;;;;27.30;64.40;;;;;;5033223;28;42957;-87
2023/07/25 03:04:13;;;;;;;;;;;27.30;64.60;;;;;;5042557;28;42986;-86
2023/07/25 03:06:39;;;;;;;;;;;27.30;65.00;;;;;;5041338;28;43044;-88
2023/07/25 03:09:04;;;;;;;;;;;27.30;64.60;;;;;;5042633;28;43347;-86
2023/07/25 03:11:30;;;;;;;;;;;27.30;64.60;;;;;;5036160;28;43076;-88
2023/07/25 03:13:55;;;;;;;;;;;27.30;64.70;;;;;;5040119;28;44581;-88
2023/07/25 03:16:21;;;;;;;;;;;27.30;64.60;;;;;;5041096;28;43070;-88
2023/07/25 03:18:46;;;;;;;;;;;27.30;64.50;;;;;;5043547;28;42797;-86
2023/07/25 03:21:12;;;;;;;;;;;27.30;64.60;;;;;;5032031;28;44098;-86
2023/07/25 03:23:37;;;;;;;;;;;27.30;64.70;;;;;;5042696;28;43764;-86
2023/07/25 03:26:03;;;;;;;;;;;27.30;64.70;;;;;;5042932;28;43135;-86
2023/07/25 03:28:29;;;;;;;;;;;27.30;65.00;;;;;;5024484;28;44965;-86
2023/07/25 03:30:54;;;;;;;;;;;27.30;64.90;;;;;;5035261;28;43100;-87
2023/07/25 03:33:20;;;;;;;;;;;27.30;64.90;;;;;;5043713;28;42994;-84
2023/07/25 03:35:45;;;;;;;;;;;25.80;63.70;;;;;;5046206;28;42962;-86
2023/07/25 03:38:11;;;;;;;;;;;27.30;65.00;;;;;;5046754;28;43126;-86
2023/07/25 03:40:36;;;;;;;;;;;27.30;65.00;;;;;;5044639;28;43030;-88
2023/07/25 03:43:02;;;;;;;;;;;27.30;65.10;;;;;;5036952;28;43426;-87
2023/07/25 03:45:27;;;;;;;;;;;27.30;65.10;;;;;;5046637;28;42767;-85
2023/07/25 03:47:53;;;;;;;;;;;27.30;65.00;;;;;;5044158;28;42999;-88
2023/07/25 03:50:18;;;;;;;;;;;27.30;65.10;;;;;;5044825;28;43044;-88
2023/07/25 03:52:44;;;;;;;;;;;27.30;65.10;;;;;;5044737;28;43033;-87
2023/07/25 03:55:09;;;;;;;;;;;27.30;65.10;;;;;;5045406;28;42950;-87
2023/07/25 03:57:35;;;;;;;;;;;27.30;65.10;;;;;;5045967;28;42995;-87
2023/07/25 04:00:00;;;;;;;;;;;27.30;65.20;;;;;;5034279;28;43094;-87
2023/07/25 04:02:26;;;;;;;;;;;27.30;65.20;;;;;;5044790;28;44219;-85
2023/07/25 04:04:51;;;;;;;;;;;27.30;65.00;;;;;;5045754;28;42997;-86
2023/07/25 04:07:17;;;;;;;;;;;27.40;64.70;;;;;;5043869;28;43709;-87
2023/07/25 04:09:42;;;;;;;;;;;27.30;64.50;;;;;;5044841;28;43074;-86
2023/07/25 04:12:08;;;;;;;;;;;27.30;64.60;;;;;;5043044;28;43069;-86
2023/07/25 04:14:33;;;;;;;;;;;27.20;64.50;;;;;;5042498;28;42903;-85
2023/07/25 04:16:59;;;;;;;;;;;27.20;64.50;;;;;;5046189;28;43030;-87
2023/07/25 04:19:24;;;;;;;;;;;27.20;64.50;;;;;;5044909;28;42999;-88
2023/07/25 04:21:50;;;;;;;;;;;27.20;64.40;;;;;;5044976;28;43723;-88
2023/07/25 04:24:15;;;;;;;;;;;27.20;64.50;;;;;;5045527;28;42982;-86
2023/07/25 04:26:44;;;;;;;;;;;27.20;64.30;;;;;;5031170;28;42943;-86
2023/07/25 04:29:09;;;;;;;;;;;26.60;63.60;;;;;;5037780;28;42890;-83
2023/07/25 04:31:35;;;;;;;;;;;27.20;64.10;;;;;;5040091;28;42889;-83
2023/07/25 04:34:00;;;;;;;;;;;27.10;64.00;;;;;;5045641;28;42998;-86
2023/07/25 04:36:28;;;;;;;;;;;27.10;63.90;;;;;;5033979;28;43338;-82
2023/07/25 04:38:54;;;;;;;;;;;27.10;63.70;;;;;;5044700;28;43010;-83
2023/07/25 04:41:20;;;;;;;;;;;27.10;63.60;;;;;;5043039;28;44112;-83
2023/07/25 04:43:45;;;;;;;;;;;27.10;63.50;;;;;;5034458;28;43051;-90
2023/07/25 04:46:11;;;;;;;;;;;27.00;63.70;;;;;;5043481;28;43040;-84
2023/07/25 04:48:36;;;;;;;;;;;27.10;63.90;;;;;;5042052;28;43219;-89
2023/07/25 04:51:02;;;;;;;;;;;27.10;64.00;;;;;;5045551;28;42871;-87
2023/07/25 04:53:27;;;;;;;;;;;27.10;63.90;;;;;;5044892;28;43039;-85
2023/07/25 04:55:53;;;;;;;;;;;27.10;63.90;;;;;;5045674;28;44021;-88
2023/07/25 04:58:18;;;;;;;;;;;27.10;63.70;;;;;;5044051;28;43173;-87
2023/07/25 05:00:44;;;;;;;;;;;27.10;63.70;;;;;;5043550;28;43098;-89
2023/07/25 05:03:09;;;;;;;;;;;27.10;63.80;;;;;;5045488;28;43058;-90
2023/07/25 05:05:35;;;;;;;;;;;27.10;63.70;;;;;;5045617;28;43647;-86
2023/07/25 05:08:00;;;;;;;;;;;27.10;63.80;;;;;;5045667;28;43188;-88
2023/07/25 05:10:26;;;;;;;;;;;27.10;63.80;;;;;;5044929;28;42939;-87
2023/07/25 05:12:51;;;;;;;;;;;27.10;64.00;;;;;;5044847;28;42973;-86
2023/07/25 05:15:17;;;;;;;;;;;27.10;63.70;;;;;;5044336;28;43668;-88
2023/07/25 05:17:43;;;;;;;;;;;27.10;63.70;;;;;;5045220;28;43003;-84
2023/07/25 05:20:08;;;;;;;;;;;27.10;63.70;;;;;;5044973;28;44029;-85
2023/07/25 05:22:34;;;;;;;;;;;27.10;63.50;;;;;;5045196;28;42928;-88
2023/07/25 05:24:59;;;;;;;;;;;27.10;63.50;;;;;;5045013;28;43504;-85
2023/07/25 05:27:25;;;;;;;;;;;27.10;63.40;;;;;;5045273;28;43064;-87
2023/07/25 05:29:50;;;;;;;;;;;27.10;63.40;;;;;;5043526;28;43366;-84
2023/07/25 05:32:16;;;;;;;;;;;27.20;63.40;;;;;;5045339;28;43099;-87
2023/07/25 05:34:41;;;;;;;;;;;27.10;63.20;;;;;;5044925;28;43531;-84
2023/07/25 05:37:07;;;;;;;;;;;27.10;62.60;;;;;;5045084;28;43047;-84
2023/07/25 05:39:32;;;;;;;;;;;27.20;63.40;;;;;;5045231;28;42815;-85
2023/07/25 05:41:58;;;;;;;;;;;27.10;63.20;;;;;;5045202;28;42921;-86
2023/07/25 05:44:23;;;;;;;;;;;27.20;63.30;;;;;;5045192;28;43020;-84
2023/07/25 05:46:49;;;;;;;;;;;27.20;63.40;;;;;;5044401;28;43013;-87
2023/07/25 05:49:15;;;;;;;;;;;27.10;63.50;;;;;;5044411;28;43522;-87
2023/07/25 05:51:40;;;;;;;;;;;27.20;63.40;;;;;;5038208;28;43542;-83
2023/07/25 05:54:06;;;;;;;;;;;27.10;63.50;;;;;;5044437;28;43570;-87
2023/07/25 05:56:31;;;;;;;;;;;27.10;63.50;;;;;;5043715;28;42970;-88
2023/07/25 05:58:57;;;;;;;;;;;27.10;63.60;;;;;;5038918;28;42975;-87
2023/07/25 06:01:22;;;;;;;;;;;27.10;63.50;;;;;;5044002;28;43091;-87
2023/07/25 06:03:48;;;;;;;;;;;27.10;63.70;;;;;;5044708;28;43475;-86
2023/07/25 06:06:13;;;;;;;;;;;27.10;63.50;;;;;;5044930;28;42947;-87
2023/07/25 06:08:39;;;;;;;;;;;27.10;63.60;;;;;;5042203;28;44289;-89
2023/07/25 06:11:04;;;;;;;;;;;27.10;63.50;;;;;;5037372;28;43201;-86
2023/07/25 06:13:33;;;;;;;;;;;27.10;63.40;;;;;;5044407;28;42987;-85
2023/07/25 06:15:58;;;;;;;;;;;27.10;63.40;;;;;;5041525;28;43016;-85
2023/07/25 06:18:24;;;;;;;;;;;27.10;63.30;;;;;;5043505;28;43616;-88
2023/07/25 06:20:49;;;;;;;;;;;27.10;63.40;;;;;;5043796;28;43041;-91
2023/07/25 06:23:15;;;;;;;;;;;27.10;63.40;;;;;;5043678;28;42990;-81
2023/07/25 06:25:40;;;;;;;;;;;27.10;63.50;;;;;;5040597;28;43160;-79
2023/07/25 06:28:06;;;;;;;;;;;27.10;63.60;;;;;;5042307;28;42986;-81
2023/07/25 06:30:32;;;;;;;;;;;26.50;63.10;;;;;;5039350;28;42974;-81
2023/07/25 06:32:57;;;;;;;;;;;27.10;63.60;;;;;;5044629;28;43366;-80
2023/07/25 06:35:23;;;;;;;;;;;27.10;63.70;;;;;;5044167;28;42961;-81
2023/07/25 06:37:48;;;;;;;;;;;27.10;63.70;;;;;;5043579;28;44272;-81
2023/07/25 06:40:14;;;;;;;;;;;27.10;63.70;;;;;;5044232;28;43024;-79
2023/07/25 06:42:39;;;;;;;;;;;27.10;63.90;;;;;;5037478;28;43634;-81
2023/07/25 06:45:05;;;;;;;;;;;27.10;63.90;;;;;;5032052;28;43062;-81
2023/07/25 06:47:31;;;;;;;;;;;27.10;64.00;;;;;;5034320;28;43475;-80
2023/07/25 06:49:58;;;;;;;;;;;27.10;63.90;;;;;;5037999;28;43066;-80
2023/07/25 06:52:23;;;;;;;;;;;27.10;63.90;;;;;;5041910;28;44586;-81
2023/07/25 06:54:49;;;;;;;;;;;29.60;65.80;;;;;;5034632;28;42951;-81
2023/07/25 06:57:14;;;;;;;;;;;27.10;63.90;;;;;;5039427;28;43453;-81
2023/07/25 06:59:39;;;;;;;;;;;27.10;64.00;;;;;;5036745;28;42844;-82
2023/07/25 07:02:05;;;;;;;;;;;27.10;64.10;;;;;;5037009;28;42982;-81
2023/07/25 07:04:31;;;;;;;;;;;27.10;64.00;;;;;;5043721;28;42850;-82
2023/07/25 07:06:56;;;;;;;;;;;27.10;63.90;;;;;;5046600;28;42975;-81
2023/07/25 07:09:22;;;;;;;;;;;27.10;64.00;;;;;;5045368;28;43061;-81
2023/07/25 07:11:47;;;;;;;;;;;27.10;63.40;;;;;;5041908;28;43909;-82
2023/07/25 07:14:12;;;;;;;;;;;27.10;64.00;;;;;;5042853;28;42927;-82
2023/07/25 07:16:38;;;;;;;;;;;27.20;64.00;;;;;;5039262;28;42963;-81
2023/07/25 07:19:04;;;;;;;;;;;27.20;63.90;;;;;;5047081;28;42971;-82
2023/07/25 07:21:29;;;;;;;;;;;27.30;63.30;;;;;;5045445;28;45532;-81
2023/07/25 07:23:55;;;;;;;;;;;27.20;63.60;;;;;;5045117;28;42879;-82
2023/07/25 07:26:20;;;;;;;;;;;27.30;63.60;;;;;;5045494;28;43474;-82
2023/07/25 07:28:46;;;;;;;;;;;27.30;63.50;;;;;;5046961;28;42947;-82
2023/07/25 07:31:12;;;;;;;;;;;27.40;63.60;;;;;;5046767;28;42863;-81
2023/07/25 07:33:38;;;;;;;;;;;27.40;63.60;;;;;;5046650;28;42916;-82
2023/07/25 07:36:04;;;;;;;;;;;27.40;63.30;;;;;;5045876;28;42998;-82
2023/07/25 07:38:30;;;;;;;;;;;27.40;63.20;;;;;;5043239;28;42987;-81
2023/07/25 07:40:55;;;;;;;;;;;27.40;63.10;;;;;;5037766;28;43309;-81
2023/07/25 07:43:21;;;;;;;;;;;27.40;63.20;;;;;;5043934;28;42969;-80
2023/07/25 07:45:48;;;;;;;;;;;27.40;63.20;;;;;;5046195;28;42945;-81
2023/07/25 07:48:13;;;;;;;;;;;27.40;63.20;;;;;;5036025;28;42847;-80
2023/07/25 07:50:39;;;;;;;;;;;27.40;63.30;;;;;;5029208;28;43016;-82
2023/07/25 07:53:04;;;;;;;;;;;27.40;63.40;;;;;;5046498;28;43843;-82
2023/07/25 07:55:30;;;;;;;;;;;27.40;63.50;;;;;;5046148;28;43661;-81
2023/07/25 07:57:55;;;;;;;;;;;27.50;63.70;;;;;;5044292;28;43019;-81
2023/07/25 08:00:23;;;;;;;;;;;27.40;63.60;;;;;;5035862;28;43177;-82
2023/07/25 08:02:49;;;;;;;;;;;27.40;63.80;;;;;;5041733;28;43091;-81
2023/07/25 08:05:14;;;;;;;;;;;27.40;63.80;;;;;;5044142;28;43548;-80
2023/07/25 08:07:40;;;;;;;;;;;27.40;64.00;;;;;;5042107;28;42947;-81
2023/07/25 08:10:06;;;;;;;;;;;27.40;64.10;;;;;;5045675;28;42923;-81
2023/07/25 08:12:31;;;;;;;;;;;27.40;64.10;;;;;;5045371;28;42939;-81
2023/07/25 08:14:57;;;;;;;;;;;27.40;64.20;;;;;;5045644;28;43430;-82
2023/07/25 08:17:22;;;;;;;;;;;27.40;64.40;;;;;;5046301;28;42883;-80
2023/07/25 08:19:48;;;;;;;;;;;27.40;64.30;;;;;;5045965;28;43012;-80
2023/07/25 08:22:13;;;;;;;;;;;27.40;64.40;;;;;;5045748;28;42915;-81
2023/07/25 08:24:39;;;;;;;;;;;27.40;64.10;;;;;;5046209;28;43419;-81
2023/07/25 08:27:05;;;;;;;;;;;27.40;64.00;;;;;;5046117;28;42915;-81
2023/07/25 08:29:30;;;;;;;;;;;27.40;64.10;;;;;;5045763;28;43856;-81
2023/07/25 08:31:56;;;;;;;;;;;27.40;64.30;;;;;;5045821;28;42898;-81
2023/07/25 08:34:22;;;;;;;;;;;27.30;64.40;;;;;;5046056;28;43419;-81
2023/07/25 08:36:47;;;;;;;;;;;27.30;64.60;;;;;;5045024;28;42893;-81
2023/07/25 08:39:13;;;;;;;;;;;27.30;64.60;;;;;;5045432;28;42880;-82
2023/07/25 08:41:47;;;;;;;;;;;27.30;64.70;;;;;;5045760;28;43279;-81
2023/07/25 08:44:14;;;;;;;;;;;27.20;64.70;;;;;;5043417;28;44462;-81
2023/07/25 08:46:41;;;;;;;;;;;27.20;64.30;;;;;;5043529;28;43570;-81
2023/07/25 08:49:10;;;;;;;;;;;27.20;64.50;;;;;;5044298;28;43006;-81
2023/07/25 08:51:37;;;;;;;;;;;27.20;64.60;;;;;;5044627;28;43101;-82
2023/07/25 08:54:08;;;;;;;;;;;27.30;65.40;;;;;;5045199;28;42980;-82
2023/07/25 08:56:34;;;;;;;;;;;27.20;65.20;;;;;;5045116;28;42942;-83
2023/07/25 08:59:02;;;;;;;;;;;27.30;65.30;;;;;;5045237;28;43378;-82
2023/07/25 09:01:27;;;;;;;;;;;27.20;65.20;;;;;;5045490;28;42974;-82
2023/07/25 09:03:53;;;;;;;;;;;27.20;65.30;;;;;;5044413;28;43070;-81
2023/07/25 09:06:19;;;;;;;;;;;27.30;65.20;;;;;;5045042;28;42942;-82
2023/07/25 09:08:45;;;;;;;;;;;27.30;65.10;;;;;;5044520;28;43010;-82
2023/07/25 09:11:12;;;;;;;;;;;27.20;65.00;;;;;;5043030;28;43222;-81
2023/07/25 09:13:37;;;;;;;;;;;27.20;65.00;;;;;;5045501;28;43872;-80
2023/07/25 09:16:03;;;;;;;;;;;27.20;64.80;;;;;;5054187;28;42960;-81
2023/07/25 09:18:29;;;;;;;;;;;27.20;64.60;;;;;;5037499;28;43783;-93
2023/07/25 09:20:55;;;;;;;;;;;27.20;64.60;;;;;;5043136;28;43191;-83
2023/07/25 09:23:23;;;;;;;;;;;27.10;63.90;;;;;;5038559;28;43921;-87
2023/07/25 09:25:49;;;;;;;;;;;26.90;64.10;;;;;;5054189;28;42889;-85
2023/07/25 09:28:15;;;;;;;;;;;26.70;64.50;;;;;;5049751;28;44503;-87
2023/07/25 09:30:50;;;;;;;;;;;26.70;65.20;;;;;;5047301;28;43838;-84
2023/07/25 09:33:25;;;;;;;;;;;26.70;64.80;;;;;;5048983;28;43693;-84
2023/07/25 09:35:51;;;;;;;;;;;26.60;64.70;;;;;;5043653;28;42951;-88
2023/07/25 09:38:17;;;;;;;;;;;26.50;64.80;;;;;;5044410;28;44054;-84
2023/07/25 09:40:44;;;;;;;;;;;26.50;65.20;;;;;;5051505;28;42976;-84
2023/07/25 09:43:20;;;;;;;;;;;26.50;65.40;;;;;;5045438;28;43848;-84
2023/07/25 09:45:45;;;;;;;;;;;26.50;65.50;;;;;;5043008;28;42945;-84
2023/07/25 09:48:11;;;;;;;;;;;26.50;65.60;;;;;;5043377;28;42996;-90
2023/07/25 09:50:36;;;;;;;;;;;26.50;65.50;;;;;;5043346;28;42924;-89
2023/07/25 09:53:02;;;;;;;;;;;26.50;66.40;;;;;;5043426;28;44277;-87
2023/07/25 09:55:27;;;;;;;;;;;26.50;65.70;;;;;;5043116;28;43021;-87
2023/07/25 09:57:53;;;;;;;;;;;26.50;65.80;;;;;;5043732;28;43782;-85
2023/07/25 10:00:18;;;;;;;;;;;26.50;65.80;;;;;;5043944;28;42941;-87
2023/07/25 10:02:44;;;;;;;;;;;26.50;66.00;;;;;;5043673;28;43720;-84
2023/07/25 10:05:10;;;;;;;;;;;26.50;66.30;;;;;;5044311;28;42991;-85
2023/07/25 10:07:36;;;;;;;;;;;26.50;66.10;;;;;;5044290;28;43153;-88
2023/07/25 10:10:03;;;;;;;;;;;26.50;66.00;;;;;;5044466;28;42840;-83
2023/07/25 10:12:29;;;;;;;;;;;26.60;66.60;;;;;;5044321;28;43018;-84
2023/07/25 10:14:55;;;;;;;;;;;26.60;66.50;;;;;;5044243;28;42865;-92
2023/07/25 10:17:20;;;;;;;;;;;26.70;66.40;;;;;;5043616;28;43575;-87
2023/07/25 10:19:46;;;;;;;;;;;26.70;65.90;;;;;;5043499;28;42895;-87
2023/07/25 10:22:12;;;;;;;;;;;26.60;65.40;;;;;;5046119;28;44405;-84
2023/07/25 10:24:37;;;;;;;;;;;26.70;65.20;;;;;;5047347;28;43103;-84
2023/07/25 10:27:06;;;;;;;;;;;26.70;65.10;;;;;;5044996;28;43847;-84
2023/07/25 10:29:36;;;;;;;;;;;26.70;65.30;;;;;;5060118;28;43096;-91
2023/07/25 10:32:02;;;;;;;;;;;26.90;64.90;;;;;;5048741;28;44450;-83
2023/07/25 10:34:45;;;;;;;;;;;26.80;65.10;;;;;;5044146;28;42954;-84
2023/07/25 10:37:38;;;;;;;;;;;26.80;65.20;;;;;;5043796;28;43418;-85
2023/07/25 10:40:04;;;;;;;;;;;26.80;65.50;;;;;;5040532;28;43002;-83
2023/07/25 10:42:52;;;;;;;;;;;26.80;65.70;;;;;;5043613;28;42938;-85
2023/07/25 10:45:27;;;;;;;;;;;27.00;66.00;;;;;;5042758;28;42917;-83
2023/07/25 10:47:53;;;;;;;;;;;26.90;65.70;;;;;;5044023;28;42906;-86
2023/07/25 10:50:19;;;;;;;;;;;26.70;65.20;;;;;;5043798;28;42977;-85
2023/07/25 10:52:45;;;;;;;;;;;26.70;64.90;;;;;;5042658;28;43903;-83
2023/07/25 10:55:11;;;;;;;;;;;26.70;65.00;;;;;;5034859;28;42778;-83
2023/07/25 10:57:36;;;;;;;;;;;26.80;65.30;;;;;;5043572;28;42973;-85
2023/07/25 11:00:08;;;;;;;;;;;26.80;65.10;;;;;;5043622;28;42994;-86
2023/07/25 11:02:34;;;;;;;;;;;26.80;64.90;;;;;;5041649;28;44947;-84
2023/07/25 11:05:12;;;;;;;;;;;26.80;65.00;;;;;;5041567;28;42933;-85
2023/07/25 11:07:46;;;;;;;;;;;26.80;64.90;;;;;;5043309;28;43908;-84
2023/07/25 11:10:28;;;;;;;;;;;26.90;65.00;;;;;;5044369;28;42895;-85
2023/07/25 11:12:57;;;;;;;;;;;26.90;64.90;;;;;;5043503;28;43920;-86
2023/07/25 11:15:23;;;;;;;;;;;26.80;64.70;;;;;;5043727;28;43119;-86
2023/07/25 11:17:49;;;;;;;;;;;26.80;64.70;;;;;;5043519;28;43069;-86
2023/07/25 11:20:18;;;;;;;;;;;26.80;64.80;;;;;;5044054;28;43415;-85
2023/07/25 11:22:47;;;;;;;;;;;29.10;66.60;;;;;;5042314;28;43462;-83
2023/07/25 11:25:13;;;;;;;;;;;26.90;65.30;;;;;;5044037;28;42863;-85
2023/07/25 11:27:42;;;;;;;;;;;27.00;64.80;;;;;;5043572;28;42983;-83
2023/07/25 11:30:08;;;;;;;;;;;27.00;63.90;;;;;;5043849;28;42900;-82
2023/07/25 11:32:34;;;;;;;;;;;26.90;63.60;;;;;;5043972;28;43129;-84
2023/07/25 11:35:02;;;;;;;;;;;26.90;63.60;;;;;;5043466;28;43005;-83
2023/07/25 11:37:28;;;;;;;;;;;27.00;63.60;;;;;;5043544;28;42947;-84
2023/07/25 11:39:53;;;;;;;;;;;27.00;63.60;;;;;;5043409;28;42883;-84
2023/07/25 11:42:19;;;;;;;;;;;27.00;63.60;;;;;;5043226;28;42958;-84
2023/07/25 11:44:44;;;;;;;;;;;26.90;63.40;;;;;;5041505;28;43713;-84
2023/07/25 11:47:11;;;;;;;;;;;26.90;63.60;;;;;;5042839;28;43013;-83
2023/07/25 11:49:36;;;;;;;;;;;26.90;63.60;;;;;;5044343;28;42979;-84
2023/07/25 11:52:03;;;;;;;;;;;26.90;64.80;;;;;;5046419;28;42900;-83
2023/07/25 11:54:29;;;;;;;;;;;27.00;63.40;;;;;;5046549;28;42960;-85
2023/07/25 11:56:54;;;;;;;;;;;27.10;63.00;;;;;;5046633;28;42834;-83
2023/07/25 11:59:20;;;;;;;;;;;27.10;62.80;;;;;;5047150;28;42797;-83
2023/07/25 12:01:45;;;;;;;;;;;27.10;62.50;;;;;;5046517;28;43054;-82
2023/07/25 12:04:12;;;;;;;;;;;27.10;62.30;;;;;;5046131;28;42860;-82
2023/07/25 12:06:37;;;;;;;;;;;27.10;62.20;;;;;;5045919;28;42915;-84
2023/07/25 12:09:03;;;;;;;;;;;27.10;62.20;;;;;;5046540;28;43015;-85
2023/07/25 12:11:28;;;;;;;;;;;27.10;62.30;;;;;;5046087;28;43037;-85
2023/07/25 12:13:55;;;;;;;;;;;27.10;61.40;;;;;;5046233;28;42998;-84
2023/07/25 12:16:28;;;;;;;;;;;27.10;61.70;;;;;;5046459;28;43493;-83
2023/07/25 12:18:56;;;;;;;;;;;27.10;61.40;;;;;;5046322;28;42934;-82
2023/07/25 12:21:22;;;;;;;;;;;27.10;61.60;;;;;;5045846;28;43133;-83
2023/07/25 12:23:51;;;;;;;;;;;27.10;61.60;;;;;;5046424;28;42947;-83
2023/07/25 12:26:20;;;;;;;;;;;27.10;61.80;;;;;;5046285;28;42904;-84
2023/07/25 12:28:46;;;;;;;;;;;27.10;61.30;;;;;;5046491;28;43089;-83
2023/07/25 12:31:12;;;;;;;;;;;27.10;61.30;;;;;;5045799;28;43532;-84
2023/07/25 12:33:38;;;;;;;;;;;27.20;62.40;;;;;;5046028;28;42845;-84
2023/07/25 12:36:04;;;;;;;;;;;27.10;61.70;;;;;;5045854;28;43565;-83
2023/07/25 12:38:30;;;;;;;;;;;27.10;62.30;;;;;;5045969;28;42919;-83
2023/07/25 12:40:56;;;;;;;;;;;27.10;61.70;;;;;;5046197;28;42937;-84
2023/07/25 12:43:21;;;;;;;;;;;27.10;62.50;;;;;;5045907;28;42970;-83
2023/07/25 12:45:47;;;;;;;;;;;27.20;62.60;;;;;;5045624;28;42894;-84
2023/07/25 12:48:12;;;;;;;;;;;27.20;62.50;;;;;;5046215;28;43146;-84
2023/07/25 12:50:39;;;;;;;;;;;27.20;62.50;;;;;;5045371;28;44879;-84
2023/07/25 12:53:05;;;;;;;;;;;27.20;62.50;;;;;;5045424;28;42978;-83
2023/07/25 12:55:30;;;;;;;;;;;27.20;62.60;;;;;;5045105;28;43387;-83
2023/07/25 12:57:56;;;;;;;;;;;27.30;63.20;;;;;;5044033;28;43003;-83
2023/07/25 13:00:21;;;;;;;;;;;27.30;63.50;;;;;;5045482;28;42826;-85
2023/07/25 13:02:47;;;;;;;;;;;27.40;63.70;;;;;;5045410;28;43018;-84
2023/07/25 13:05:13;;;;;;;;;;;27.30;63.90;;;;;;5045342;28;42903;-84
2023/07/25 13:07:38;;;;;;;;;;;25.70;61.20;;;;;;5045595;28;42915;-84
2023/07/25 13:10:06;;;;;;;;;;;27.20;62.20;;;;;;5045482;28;42941;-85
2023/07/25 13:12:32;;;;;;;;;;;26.80;63.20;;;;;;5044854;28;42971;-83
2023/07/25 13:14:57;;;;;;;;;;;27.30;63.10;;;;;;5045031;28;42843;-83
2023/07/25 13:17:23;;;;;;;;;;;27.30;63.10;;;;;;5043973;28;43023;-83
2023/07/25 13:19:48;;;;;;;;;;;27.30;62.90;;;;;;5045376;28;42947;-83
2023/07/25 13:22:14;;;;;;;;;;;24.80;61.10;;;;;;5045575;28;43058;-83
2023/07/25 13:24:39;;;;;;;;;;;27.30;63.10;;;;;;5045062;28;42966;-85
2023/07/25 13:27:05;;;;;;;;;;;27.30;62.30;;;;;;5044088;28;43138;-84
2023/07/25 13:29:31;;;;;;;;;;;27.30;64.20;;;;;;5045449;28;43460;-83
2023/07/25 13:31:56;;;;;;;;;;;27.40;67.50;;;;;;5045212;28;42895;-83
2023/07/25 13:34:22;;;;;;;;;;;27.30;63.80;;;;;;5043493;28;45134;-83
2023/07/25 13:36:50;;;;;;;;;;;27.30;62.40;;;;;;5043711;28;42933;-84
2023/07/25 13:39:16;;;;;;;;;;;27.30;62.20;;;;;;5045325;28;43569;-83
2023/07/25 13:41:41;;;;;;;;;;;27.20;63.00;;;;;;5044937;28;42940;-84
2023/07/25 13:44:07;;;;;;;;;;;27.30;63.50;;;;;;5045316;28;43177;-84
2023/07/25 13:46:32;;;;;;;;;;;27.30;62.70;;;;;;5044546;28;43041;-84
2023/07/25 13:48:58;;;;;;;;;;;29.60;64.70;;;;;;5043250;28;43562;-84
2023/07/25 13:51:23;;;;;;;;;;;27.30;62.20;;;;;;5044488;28;43010;-83
2023/07/25 13:53:49;;;;;;;;;;;27.30;62.80;;;;;;5042655;28;44555;-85
2023/07/25 13:56:15;;;;;;;;;;;27.30;62.10;;;;;;5044268;28;43075;-84
2023/07/25 13:58:40;;;;;;;;;;;27.50;63.10;;;;;;5044228;28;43085;-83
2023/07/25 14:01:06;;;;;;;;;;;27.30;62.90;;;;;;5044485;28;43051;-83
2023/07/25 14:03:34;;;;;;;;;;;27.30;63.00;;;;;;5044502;28;43366;-84
2023/07/25 14:05:59;;;;;;;;;;;27.30;61.90;;;;;;5044896;28;42999;-84
2023/07/25 14:08:25;;;;;;;;;;;27.30;62.00;;;;;;5043020;28;44044;-84
2023/07/25 14:10:50;;;;;;;;;;;27.40;62.70;;;;;;5044551;28;42895;-84